sensor_id;sensor_type;location;lat;lon;timestamp;P1;durP1;ratioP1;P2;durP2;ratioP2
67456;SDS011;54319;52.038;4.640;2023-03-16T00:00:06;5.50;;;4.22;;
67456;SDS011;54319;52.038;4.640;2023-03-16T00:02:38;7.10;;;4.13;;
67456;SDS011;54319;52.038;4.640;2023-03-16T00:05:06;5.63;;;3.88;;
67456;SDS011;54319;52.038;4.640;2023-03-16T00:07:34;7.75;;;4.00;;
67456;SDS011;54319;52.038;4.640;2023-03-16T00:10:02;5.13;;;3.90;;
67456;SDS011;54319;52.038;4.640;2023-03-16T00:12:29;6.80;;;3.97;;
67456;SDS011;54319;52.038;4.640;2023-03-16T00:14:58;5.65;;;3.92;;
67456;SDS011;54319;52.038;4.640;2023-03-16T00:17:26;7.20;;;3.75;;
67456;SDS011;54319;52.038;4.640;2023-03-16T00:19:53;5.00;;;3.83;;
67456;SDS011;54319;52.038;4.640;2023-03-16T00:22:21;6.07;;;3.75;;
67456;SDS011;54319;52.038;4.640;2023-03-16T00:24:49;7.97;;;3.95;;
67456;SDS011;54319;52.038;4.640;2023-03-16T00:27:18;6.40;;;3.88;;
67456;SDS011;54319;52.038;4.640;2023-03-16T00:29:47;5.90;;;4.10;;
67456;SDS011;54319;52.038;4.640;2023-03-16T00:32:20;5.55;;;3.88;;
67456;SDS011;54319;52.038;4.640;2023-03-16T00:34:48;6.78;;;4.25;;
67456;SDS011;54319;52.038;4.640;2023-03-16T00:37:15;6.82;;;3.67;;
67456;SDS011;54319;52.038;4.640;2023-03-16T00:42:10;6.65;;;4.07;;
67456;SDS011;54319;52.038;4.640;2023-03-16T00:44:39;6.00;;;4.10;;
67456;SDS011;54319;52.038;4.640;2023-03-16T00:47:07;5.32;;;4.10;;
67456;SDS011;54319;52.038;4.640;2023-03-16T00:49:38;5.13;;;3.90;;
67456;SDS011;54319;52.038;4.640;2023-03-16T00:52:07;5.78;;;4.07;;
67456;SDS011;54319;52.038;4.640;2023-03-16T00:54:40;7.07;;;4.03;;
67456;SDS011;54319;52.038;4.640;2023-03-16T00:57:10;6.85;;;4.70;;
67456;SDS011;54319;52.038;4.640;2023-03-16T00:59:38;5.03;;;4.15;;
67456;SDS011;54319;52.038;4.640;2023-03-16T01:02:06;8.18;;;4.50;;
67456;SDS011;54319;52.038;4.640;2023-03-16T01:04:34;5.80;;;4.15;;
67456;SDS011;54319;52.038;4.640;2023-03-16T01:07:01;7.40;;;4.38;;
67456;SDS011;54319;52.038;4.640;2023-03-16T01:09:28;6.30;;;4.53;;
67456;SDS011;54319;52.038;4.640;2023-03-16T01:11:54;8.10;;;4.35;;
67456;SDS011;54319;52.038;4.640;2023-03-16T01:14:21;8.48;;;4.65;;
67456;SDS011;54319;52.038;4.640;2023-03-16T01:17:06;8.20;;;4.55;;
67456;SDS011;54319;52.038;4.640;2023-03-16T01:19:35;8.35;;;4.50;;
67456;SDS011;54319;52.038;4.640;2023-03-16T01:22:03;6.47;;;4.65;;
67456;SDS011;54319;52.038;4.640;2023-03-16T01:24:31;10.30;;;4.90;;
67456;SDS011;54319;52.038;4.640;2023-03-16T01:26:58;9.80;;;5.03;;
67456;SDS011;54319;52.038;4.640;2023-03-16T01:29:25;12.13;;;4.20;;
67456;SDS011;54319;52.038;4.640;2023-03-16T01:31:52;8.32;;;4.60;;
67456;SDS011;54319;52.038;4.640;2023-03-16T01:34:21;7.70;;;4.38;;
67456;SDS011;54319;52.038;4.640;2023-03-16T01:36:48;7.25;;;4.80;;
67456;SDS011;54319;52.038;4.640;2023-03-16T01:41:43;9.20;;;4.65;;
